sensor_id;sensor_type;location;lat;lon;timestamp;temperature;humidity
2995;DHT22;35277;49.890;8.222;2024-03-08T00:00:01;21.90;64.40
2995;DHT22;35277;49.890;8.222;2024-03-08T00:02:38;21.90;64.40
2995;DHT22;35277;49.890;8.222;2024-03-08T00:05:07;21.90;64.40
2995;DHT22;35277;49.890;8.222;2024-03-08T00:07:36;21.90;64.50
2995;DHT22;35277;49.890;8.222;2024-03-08T00:10:05;21.90;64.40
2995;DHT22;35277;49.890;8.222;2024-03-08T00:12:33;21.90;64.50
2995;DHT22;35277;49.890;8.222;2024-03-08T00:15:00;21.90;64.50
2995;DHT22;35277;49.890;8.222;2024-03-08T00:17:28;21.90;64.50
2995;DHT22;35277;49.890;8.222;2024-03-08T00:19:57;21.90;64.50
2995;DHT22;35277;49.890;8.222;2024-03-08T00:22:25;21.90;64.50
2995;DHT22;35277;49.890;8.222;2024-03-08T00:24:53;21.90;64.40
2995;DHT22;35277;49.890;8.222;2024-03-08T00:27:22;21.90;64.40
2995;DHT22;35277;49.890;8.222;2024-03-08T00:29:49;21.90;64.40
2995;DHT22;35277;49.890;8.222;2024-03-08T00:32:17;21.90;64.40
2995;DHT22;35277;49.890;8.222;2024-03-08T00:34:45;21.90;64.50
2995;DHT22;35277;49.890;8.222;2024-03-08T00:37:14;21.90;64.40
2995;DHT22;35277;49.890;8.222;2024-03-08T00:39:42;21.90;64.40
2995;DHT22;35277;49.890;8.222;2024-03-08T00:42:10;21.90;64.40
2995;DHT22;35277;49.890;8.222;2024-03-08T00:44:38;21.90;64.40
2995;DHT22;35277;49.890;8.222;2024-03-08T00:47:06;21.90;64.50
2995;DHT22;35277;49.890;8.222;2024-03-08T00:49:34;21.90;64.40
2995;DHT22;35277;49.890;8.222;2024-03-08T00:52:03;21.90;64.50
2995;DHT22;35277;49.890;8.222;2024-03-08T00:54:34;21.90;64.40
2995;DHT22;35277;49.890;8.222;2024-03-08T00:57:03;21.90;64.50
2995;DHT22;35277;49.890;8.222;2024-03-08T00:59:31;21.90;64.40
2995;DHT22;35277;49.890;8.222;2024-03-08T01:02:00;21.90;64.50
2995;DHT22;35277;49.890;8.222;2024-03-08T01:04:28;21.90;64.50
2995;DHT22;35277;49.890;8.222;2024-03-08T01:06:56;21.90;64.50
2995;DHT22;35277;49.890;8.222;2024-03-08T01:09:24;21.90;64.50
2995;DHT22;35277;49.890;8.222;2024-03-08T01:11:55;21.90;64.40
2995;DHT22;35277;49.890;8.222;2024-03-08T01:14:24;21.90;64.50
2995;DHT22;35277;49.890;8.222;2024-03-08T01:16:52;21.90;64.50
2995;DHT22;35277;49.890;8.222;2024-03-08T01:19:21;21.90;64.50
2995;DHT22;35277;49.890;8.222;2024-03-08T01:21:50;21.90;64.50
2995;DHT22;35277;49.890;8.222;2024-03-08T01:24:18;21.90;64.40
2995;DHT22;35277;49.890;8.222;2024-03-08T01:26:46;21.90;64.50
2995;DHT22;35277;49.890;8.222;2024-03-08T01:29:15;21.90;64.50
2995;DHT22;35277;49.890;8.222;2024-03-08T01:31:43;21.90;64.50
2995;DHT22;35277;49.890;8.222;2024-03-08T01:34:11;21.90;64.50
2995;DHT22;35277;49.890;8.222;2024-03-08T01:36:39;21.90;64.40
2995;DHT22;35277;49.890;8.222;2024-03-08T01:39:07;21.90;64.50
2995;DHT22;35277;49.890;8.222;2024-03-08T01:41:35;21.90;64.50
2995;DHT22;35277;49.890;8.222;2024-03-08T01:44:03;21.90;64.50
2995;DHT22;35277;49.890;8.222;2024-03-08T01:46:35;21.90;64.50
2995;DHT22;35277;49.890;8.222;2024-03-08T01:49:03;21.90;64.50
2995;DHT22;35277;49.890;8.222;2024-03-08T01:51:31;21.90;64.50
2995;DHT22;35277;49.890;8.222;2024-03-08T01:54:00;21.90;64.50
2995;DHT22;35277;49.890;8.222;2024-03-08T01:56:31;21.90;64.50
2995;DHT22;35277;49.890;8.222;2024-03-08T01:58:59;21.90;64.50
2995;DHT22;35277;49.890;8.222;2024-03-08T02:01:27;21.90;64.50
2995;DHT22;35277;49.890;8.222;2024-03-08T02:03:57;21.90;64.50
2995;DHT22;35277;49.890;8.222;2024-03-08T02:06:25;21.90;64.50
2995;DHT22;35277;49.890;8.222;2024-03-08T02:08:53;21.90;64.50
2995;DHT22;35277;49.890;8.222;2024-03-08T02:11:21;21.90;64.50
2995;DHT22;35277;49.890;8.222;2024-03-08T02:13:49;21.90;64.50
2995;DHT22;35277;49.890;8.222;2024-03-08T02:16:20;21.90;64.50
2995;DHT22;35277;49.890;8.222;2024-03-08T02:18:49;21.90;64.50
2995;DHT22;35277;49.890;8.222;2024-03-08T02:21:18;21.90;64.50
2995;DHT22;35277;49.890;8.222;2024-03-08T02:23:46;21.90;64.50
2995;DHT22;35277;49.890;8.222;2024-03-08T02:26:14;21.90;64.50
2995;DHT22;35277;49.890;8.222;2024-03-08T02:28:42;21.90;64.50
2995;DHT22;35277;49.890;8.222;2024-03-08T02:31:10;21.90;64.50
2995;DHT22;35277;49.890;8.222;2024-03-08T02:33:38;21.90;64.60
2995;DHT22;35277;49.890;8.222;2024-03-08T02:36:07;21.90;64.50
2995;DHT22;35277;49.890;8.222;2024-03-08T02:38:36;21.90;64.60
2995;DHT22;35277;49.890;8.222;2024-03-08T02:41:04;21.90;64.50
2995;DHT22;35277;49.890;8.222;2024-03-08T02:43:32;21.90;64.60
2995;DHT22;35277;49.890;8.222;2024-03-08T02:46:01;21.90;64.60
2995;DHT22;35277;49.890;8.222;2024-03-08T02:48:28;21.90;64.60
2995;DHT22;35277;49.890;8.222;2024-03-08T02:50:57;21.90;64.60
2995;DHT22;35277;49.890;8.222;2024-03-08T02:53:25;21.90;64.60
2995;DHT22;35277;49.890;8.222;2024-03-08T02:55:55;21.90;64.60
2995;DHT22;35277;49.890;8.222;2024-03-08T02:58:23;21.90;64.60
2995;DHT22;35277;49.890;8.222;2024-03-08T03:00:51;21.90;64.60
2995;DHT22;35277;49.890;8.222;2024-03-08T03:03:19;21.90;64.60
2995;DHT22;35277;49.890;8.222;2024-03-08T03:05:46;21.90;64.60
2995;DHT22;35277;49.890;8.222;2024-03-08T03:08:15;21.90;64.60
2995;DHT22;35277;49.890;8.222;2024-03-08T03:10:43;21.90;64.60
2995;DHT22;35277;49.890;8.222;2024-03-08T03:13:13;21.90;64.60
2995;DHT22;35277;49.890;8.222;2024-03-08T03:15:41;21.90;64.70
2995;DHT22;35277;49.890;8.222;2024-03-08T03:18:09;21.90;64.60
2995;DHT22;35277;49.890;8.222;2024-03-08T03:20:38;21.90;64.70
2995;DHT22;35277;49.890;8.222;2024-03-08T03:23:09;21.90;64.70
2995;DHT22;35277;49.890;8.222;2024-03-08T03:25:40;21.90;64.60
2995;DHT22;35277;49.890;8.222;2024-03-08T03:28:08;21.90;64.70
2995;DHT22;35277;49.890;8.222;2024-03-08T03:30:39;21.90;64.60
2995;DHT22;35277;49.890;8.222;2024-03-08T03:33:06;21.90;64.70
2995;DHT22;35277;49.890;8.222;2024-03-08T03:35:35;21.90;64.70
2995;DHT22;35277;49.890;8.222;2024-03-08T03:38:04;21.90;64.70
2995;DHT22;35277;49.890;8.222;2024-03-08T03:40:36;21.90;64.70
2995;DHT22;35277;49.890;8.222;2024-03-08T03:43:04;21.90;64.70
2995;DHT22;35277;49.890;8.222;2024-03-08T03:45:32;21.90;64.70
2995;DHT22;35277;49.890;8.222;2024-03-08T03:48:04;21.90;64.70
2995;DHT22;35277;49.890;8.222;2024-03-08T03:50:33;21.90;64.70
2995;DHT22;35277;49.890;8.222;2024-03-08T03:53:03;21.90;64.70
2995;DHT22;35277;49.890;8.222;2024-03-08T03:55:34;21.90;64.70
2995;DHT22;35277;49.890;8.222;2024-03-08T03:58:03;21.90;64.70
2995;DHT22;35277;49.890;8.222;2024-03-08T04:00:31;21.90;64.70
2995;DHT22;35277;49.890;8.222;2024-03-08T04:02:59;21.90;64.70
2995;DHT22;35277;49.890;8.222;2024-03-08T04:05:29;21.90;64.70
2995;DHT22;35277;49.890;8.222;2024-03-08T04:07:57;21.90;64.70
2995;DHT22;35277;49.890;8.222;2024-03-08T04:10:25;21.90;64.70
2995;DHT22;35277;49.890;8.222;2024-03-08T04:12:53;21.90;64.70
2995;DHT22;35277;49.890;8.222;2024-03-08T04:15:21;21.90;64.70
2995;DHT22;35277;49.890;8.222;2024-03-08T04:17:49;21.80;64.60
2995;DHT22;35277;49.890;8.222;2024-03-08T04:20:17;21.90;64.80
2995;DHT22;35277;49.890;8.222;2024-03-08T04:22:46;21.90;64.70
2995;DHT22;35277;49.890;8.222;2024-03-08T04:25:15;21.90;64.80
2995;DHT22;35277;49.890;8.222;2024-03-08T04:27:44;21.90;64.70
2995;DHT22;35277;49.890;8.222;2024-03-08T04:30:12;21.90;64.80
2995;DHT22;35277;49.890;8.222;2024-03-08T04:32:40;21.90;64.80
2995;DHT22;35277;49.890;8.222;2024-03-08T04:35:09;21.90;64.80
2995;DHT22;35277;49.890;8.222;2024-03-08T04:37:39;21.90;64.80
2995;DHT22;35277;49.890;8.222;2024-03-08T04:40:09;21.90;64.80
2995;DHT22;35277;49.890;8.222;2024-03-08T04:42:37;21.90;64.80
2995;DHT22;35277;49.890;8.222;2024-03-08T04:45:08;21.90;64.80
2995;DHT22;35277;49.890;8.222;2024-03-08T04:47:37;21.90;64.80
2995;DHT22;35277;49.890;8.222;2024-03-08T04:50:06;21.90;64.80
2995;DHT22;35277;49.890;8.222;2024-03-08T04:52:35;21.90;64.80
2995;DHT22;35277;49.890;8.222;2024-03-08T04:55:04;21.90;64.80
2995;DHT22;35277;49.890;8.222;2024-03-08T04:57:33;21.90;64.80
2995;DHT22;35277;49.890;8.222;2024-03-08T05:00:01;21.90;64.80
2995;DHT22;35277;49.890;8.222;2024-03-08T05:02:31;21.90;64.80
2995;DHT22;35277;49.890;8.222;2024-03-08T05:04:59;21.90;64.80
2995;DHT22;35277;49.890;8.222;2024-03-08T05:07:27;21.80;64.70
2995;DHT22;35277;49.890;8.222;2024-03-08T05:09:55;21.80;64.70
2995;DHT22;35277;49.890;8.222;2024-03-08T05:12:23;21.90;64.70
2995;DHT22;35277;49.890;8.222;2024-03-08T05:14:52;21.80;64.60
2995;DHT22;35277;49.890;8.222;2024-03-08T05:17:20;21.80;64.60
2995;DHT22;35277;49.890;8.222;2024-03-08T05:19:50;21.80;64.50
2995;DHT22;35277;49.890;8.222;2024-03-08T05:22:18;21.80;65.30
2995;DHT22;35277;49.890;8.222;2024-03-08T05:24:46;21.80;64.40
2995;DHT22;35277;49.890;8.222;2024-03-08T05:27:14;21.80;64.40
2995;DHT22;35277;49.890;8.222;2024-03-08T05:29:43;21.80;64.40
2995;DHT22;35277;49.890;8.222;2024-03-08T05:32:12;21.80;64.30
2995;DHT22;35277;49.890;8.222;2024-03-08T05:34:40;21.80;64.30
2995;DHT22;35277;49.890;8.222;2024-03-08T05:37:09;21.80;64.30
2995;DHT22;35277;49.890;8.222;2024-03-08T05:39:37;21.80;64.20
2995;DHT22;35277;49.890;8.222;2024-03-08T05:42:07;21.80;64.20
2995;DHT22;35277;49.890;8.222;2024-03-08T05:44:36;21.80;64.10
2995;DHT22;35277;49.890;8.222;2024-03-08T05:47:04;21.80;64.10
2995;DHT22;35277;49.890;8.222;2024-03-08T05:49:34;21.80;64.10
2995;DHT22;35277;49.890;8.222;2024-03-08T05:52:02;21.80;64.00
2995;DHT22;35277;49.890;8.222;2024-03-08T05:54:31;21.80;64.00
2995;DHT22;35277;49.890;8.222;2024-03-08T05:56:59;21.80;63.90
2995;DHT22;35277;49.890;8.222;2024-03-08T05:59:27;21.80;63.90
2995;DHT22;35277;49.890;8.222;2024-03-08T06:01:55;21.80;63.80
2995;DHT22;35277;49.890;8.222;2024-03-08T06:04:24;21.80;63.80
2995;DHT22;35277;49.890;8.222;2024-03-08T06:06:53;21.80;63.70
2995;DHT22;35277;49.890;8.222;2024-03-08T06:09:22;21.80;63.70
2995;DHT22;35277;49.890;8.222;2024-03-08T06:11:51;21.80;63.70
2995;DHT22;35277;49.890;8.222;2024-03-08T06:14:21;21.80;63.70
2995;DHT22;35277;49.890;8.222;2024-03-08T06:16:49;21.80;63.70
2995;DHT22;35277;49.890;8.222;2024-03-08T06:19:17;21.80;64.00
2995;DHT22;35277;49.890;8.222;2024-03-08T06:21:45;21.80;64.50
2995;DHT22;35277;49.890;8.222;2024-03-08T06:24:14;21.80;64.90
2995;DHT22;35277;49.890;8.222;2024-03-08T06:26:42;21.80;65.30
2995;DHT22;35277;49.890;8.222;2024-03-08T06:29:11;21.90;65.50
2995;DHT22;35277;49.890;8.222;2024-03-08T06:31:39;21.90;65.40
2995;DHT22;35277;49.890;8.222;2024-03-08T06:34:07;21.90;65.50
2995;DHT22;35277;49.890;8.222;2024-03-08T06:36:36;21.90;65.50
2995;DHT22;35277;49.890;8.222;2024-03-08T06:39:04;21.90;65.50
2995;DHT22;35277;49.890;8.222;2024-03-08T06:41:37;21.90;65.60
2995;DHT22;35277;49.890;8.222;2024-03-08T06:44:05;21.90;65.60
2995;DHT22;35277;49.890;8.222;2024-03-08T06:46:34;21.90;66.40
2995;DHT22;35277;49.890;8.222;2024-03-08T06:49:02;21.90;65.60
2995;DHT22;35277;49.890;8.222;2024-03-08T06:51:30;21.90;65.60
2995;DHT22;35277;49.890;8.222;2024-03-08T06:53:58;21.90;65.70
2995;DHT22;35277;49.890;8.222;2024-03-08T06:56:26;21.90;65.70
2995;DHT22;35277;49.890;8.222;2024-03-08T06:58:56;21.90;65.60
2995;DHT22;35277;49.890;8.222;2024-03-08T07:01:23;21.90;65.60
2995;DHT22;35277;49.890;8.222;2024-03-08T07:03:51;21.90;65.50
2995;DHT22;35277;49.890;8.222;2024-03-08T07:06:19;21.90;65.50
2995;DHT22;35277;49.890;8.222;2024-03-08T07:08:47;21.90;65.40
2995;DHT22;35277;49.890;8.222;2024-03-08T07:11:15;21.90;65.30
2995;DHT22;35277;49.890;8.222;2024-03-08T07:13:45;21.90;65.30
2995;DHT22;35277;49.890;8.222;2024-03-08T07:16:14;21.90;65.20
2995;DHT22;35277;49.890;8.222;2024-03-08T07:18:42;21.90;65.10
2995;DHT22;35277;49.890;8.222;2024-03-08T07:21:11;21.90;65.00
2995;DHT22;35277;49.890;8.222;2024-03-08T07:23:39;21.90;65.00
2995;DHT22;35277;49.890;8.222;2024-03-08T07:26:30;21.90;64.90
2995;DHT22;35277;49.890;8.222;2024-03-08T07:28:58;21.90;64.90
2995;DHT22;35277;49.890;8.222;2024-03-08T07:31:28;21.90;64.80
2995;DHT22;35277;49.890;8.222;2024-03-08T07:34:11;21.90;64.80
2995;DHT22;35277;49.890;8.222;2024-03-08T07:36:39;21.90;64.70
2995;DHT22;35277;49.890;8.222;2024-03-08T07:39:07;21.90;64.70
2995;DHT22;35277;49.890;8.222;2024-03-08T07:41:38;21.90;64.60
2995;DHT22;35277;49.890;8.222;2024-03-08T07:44:07;21.90;64.60
2995;DHT22;35277;49.890;8.222;2024-03-08T07:46:36;21.90;64.60
2995;DHT22;35277;49.890;8.222;2024-03-08T07:49:05;21.90;64.50
2995;DHT22;35277;49.890;8.222;2024-03-08T07:51:32;21.90;64.50
2995;DHT22;35277;49.890;8.222;2024-03-08T07:54:01;21.90;64.40
2995;DHT22;35277;49.890;8.222;2024-03-08T07:56:31;21.90;64.40
2995;DHT22;35277;49.890;8.222;2024-03-08T07:58:58;21.90;64.50
2995;DHT22;35277;49.890;8.222;2024-03-08T08:01:26;21.90;64.40
2995;DHT22;35277;49.890;8.222;2024-03-08T08:03:55;21.90;64.40
2995;DHT22;35277;49.890;8.222;2024-03-08T08:09:08;21.90;64.30
2995;DHT22;35277;49.890;8.222;2024-03-08T08:11:40;21.90;64.30
2995;DHT22;35277;49.890;8.222;2024-03-08T08:14:10;21.90;64.30
2995;DHT22;35277;49.890;8.222;2024-03-08T08:16:38;21.90;64.30
2995;DHT22;35277;49.890;8.222;2024-03-08T08:19:09;21.90;64.30
2995;DHT22;35277;49.890;8.222;2024-03-08T08:21:41;21.90;64.20
2995;DHT22;35277;49.890;8.222;2024-03-08T08:24:08;21.90;64.20
2995;DHT22;35277;49.890;8.222;2024-03-08T08:26:37;21.90;64.20
2995;DHT22;35277;49.890;8.222;2024-03-08T08:29:06;21.90;64.20
2995;DHT22;35277;49.890;8.222;2024-03-08T08:31:34;21.90;64.20
2995;DHT22;35277;49.890;8.222;2024-03-08T08:34:03;21.90;64.20
2995;DHT22;35277;49.890;8.222;2024-03-08T08:36:32;21.90;64.20
2995;DHT22;35277;49.890;8.222;2024-03-08T08:39:00;21.90;64.20
2995;DHT22;35277;49.890;8.222;2024-03-08T08:41:29;21.90;64.10
2995;DHT22;35277;49.890;8.222;2024-03-08T08:43:58;21.90;64.10
2995;DHT22;35277;49.890;8.222;2024-03-08T08:46:41;21.90;64.10
2995;DHT22;35277;49.890;8.222;2024-03-08T08:49:09;21.90;64.10
2995;DHT22;35277;49.890;8.222;2024-03-08T08:51:39;21.90;64.10
2995;DHT22;35277;49.890;8.222;2024-03-08T08:54:07;21.90;64.10
2995;DHT22;35277;49.890;8.222;2024-03-08T08:56:38;21.90;64.20
2995;DHT22;35277;49.890;8.222;2024-03-08T08:59:06;21.90;64.30
2995;DHT22;35277;49.890;8.222;2024-03-08T09:01:34;21.90;64.40
2995;DHT22;35277;49.890;8.222;2024-03-08T09:04:02;21.90;64.60
2995;DHT22;35277;49.890;8.222;2024-03-08T09:06:30;21.90;64.60
2995;DHT22;35277;49.890;8.222;2024-03-08T09:08:59;21.90;64.40
2995;DHT22;35277;49.890;8.222;2024-03-08T09:11:31;22.00;64.40
2995;DHT22;35277;49.890;8.222;2024-03-08T09:13:59;21.90;64.20
2995;DHT22;35277;49.890;8.222;2024-03-08T09:16:28;21.90;64.20
2995;DHT22;35277;49.890;8.222;2024-03-08T09:18:56;21.90;64.10
2995;DHT22;35277;49.890;8.222;2024-03-08T09:21:24;21.90;64.10
2995;DHT22;35277;49.890;8.222;2024-03-08T09:23:52;21.90;64.00
2995;DHT22;35277;49.890;8.222;2024-03-08T09:26:21;21.90;64.00
2995;DHT22;35277;49.890;8.222;2024-03-08T09:28:55;22.00;64.00
2995;DHT22;35277;49.890;8.222;2024-03-08T09:31:23;21.90;63.90
2995;DHT22;35277;49.890;8.222;2024-03-08T09:33:51;22.00;64.00
2995;DHT22;35277;49.890;8.222;2024-03-08T09:36:19;22.00;64.00
2995;DHT22;35277;49.890;8.222;2024-03-08T09:38:46;22.00;63.90
2995;DHT22;35277;49.890;8.222;2024-03-08T09:41:16;22.00;63.90
2995;DHT22;35277;49.890;8.222;2024-03-08T09:43:45;22.00;63.80
2995;DHT22;35277;49.890;8.222;2024-03-08T09:46:14;22.00;63.80
2995;DHT22;35277;49.890;8.222;2024-03-08T09:48:43;22.00;63.80
2995;DHT22;35277;49.890;8.222;2024-03-08T09:51:13;22.00;63.80
2995;DHT22;35277;49.890;8.222;2024-03-08T09:53:42;22.00;63.80
2995;DHT22;35277;49.890;8.222;2024-03-08T09:56:10;22.00;63.60
2995;DHT22;35277;49.890;8.222;2024-03-08T09:58:39;22.00;63.30
2995;DHT22;35277;49.890;8.222;2024-03-08T10:01:42;22.00;62.90
2995;DHT22;35277;49.890;8.222;2024-03-08T10:04:11;22.00;62.50
2995;DHT22;35277;49.890;8.222;2024-03-08T10:06:40;22.00;62.20
2995;DHT22;35277;49.890;8.222;2024-03-08T10:09:08;22.00;62.00
2995;DHT22;35277;49.890;8.222;2024-03-08T10:11:37;22.00;61.80
2995;DHT22;35277;49.890;8.222;2024-03-08T10:14:07;22.00;61.80
2995;DHT22;35277;49.890;8.222;2024-03-08T10:16:37;22.00;61.80
2995;DHT22;35277;49.890;8.222;2024-03-08T10:19:07;22.00;61.70
2995;DHT22;35277;49.890;8.222;2024-03-08T10:21:47;22.00;61.60
2995;DHT22;35277;49.890;8.222;2024-03-08T10:24:15;22.00;61.70
2995;DHT22;35277;49.890;8.222;2024-03-08T10:26:43;22.00;61.70
2995;DHT22;35277;49.890;8.222;2024-03-08T10:29:11;22.00;61.70
2995;DHT22;35277;49.890;8.222;2024-03-08T10:31:43;22.00;61.70
2995;DHT22;35277;49.890;8.222;2024-03-08T10:34:13;22.10;61.90
2995;DHT22;35277;49.890;8.222;2024-03-08T10:36:41;22.10;62.10
2995;DHT22;35277;49.890;8.222;2024-03-08T10:39:19;22.10;62.40
2995;DHT22;35277;49.890;8.222;2024-03-08T10:41:53;22.10;62.70
2995;DHT22;35277;49.890;8.222;2024-03-08T10:44:37;22.10;62.90
2995;DHT22;35277;49.890;8.222;2024-03-08T10:47:15;22.10;62.60
2995;DHT22;35277;49.890;8.222;2024-03-08T10:49:54;22.10;62.40
2995;DHT22;35277;49.890;8.222;2024-03-08T10:52:22;22.10;62.20
2995;DHT22;35277;49.890;8.222;2024-03-08T10:54:52;22.10;61.80
2995;DHT22;35277;49.890;8.222;2024-03-08T10:57:22;22.10;61.60
2995;DHT22;35277;49.890;8.222;2024-03-08T10:59:51;22.10;61.40
2995;DHT22;35277;49.890;8.222;2024-03-08T11:02:25;22.10;61.20
2995;DHT22;35277;49.890;8.222;2024-03-08T11:04:55;22.10;61.00
2995;DHT22;35277;49.890;8.222;2024-03-08T11:07:25;22.10;60.70
2995;DHT22;35277;49.890;8.222;2024-03-08T11:09:56;22.10;60.50
2995;DHT22;35277;49.890;8.222;2024-03-08T11:12:25;22.00;60.00
2995;DHT22;35277;49.890;8.222;2024-03-08T11:14:53;22.10;59.80
2995;DHT22;35277;49.890;8.222;2024-03-08T11:17:27;22.10;59.60
2995;DHT22;35277;49.890;8.222;2024-03-08T11:20:10;22.00;59.30
2995;DHT22;35277;49.890;8.222;2024-03-08T11:22:47;22.00;59.10
2995;DHT22;35277;49.890;8.222;2024-03-08T11:25:36;22.00;58.90
2995;DHT22;35277;49.890;8.222;2024-03-08T11:28:09;22.00;58.70
2995;DHT22;35277;49.890;8.222;2024-03-08T11:30:47;22.00;58.50
2995;DHT22;35277;49.890;8.222;2024-03-08T11:33:16;22.00;58.30
2995;DHT22;35277;49.890;8.222;2024-03-08T11:35:46;22.00;58.10
2995;DHT22;35277;49.890;8.222;2024-03-08T11:38:15;22.00;57.80
2995;DHT22;35277;49.890;8.222;2024-03-08T11:40:46;22.00;57.50
2995;DHT22;35277;49.890;8.222;2024-03-08T11:43:16;22.00;57.10
2995;DHT22;35277;49.890;8.222;2024-03-08T11:45:44;22.00;57.00
2995;DHT22;35277;49.890;8.222;2024-03-08T11:48:12;22.00;56.60
2995;DHT22;35277;49.890;8.222;2024-03-08T11:50:41;22.00;56.20
2995;DHT22;35277;49.890;8.222;2024-03-08T11:53:11;22.00;56.00
2995;DHT22;35277;49.890;8.222;2024-03-08T11:55:40;21.90;55.60
2995;DHT22;35277;49.890;8.222;2024-03-08T11:58:09;21.90;55.50
2995;DHT22;35277;49.890;8.222;2024-03-08T12:00:37;21.90;55.30
2995;DHT22;35277;49.890;8.222;2024-03-08T12:03:06;21.90;55.10
2995;DHT22;35277;49.890;8.222;2024-03-08T12:05:36;21.90;55.00
2995;DHT22;35277;49.890;8.222;2024-03-08T12:08:05;21.90;54.70
2995;DHT22;35277;49.890;8.222;2024-03-08T12:10:35;21.90;54.80
2995;DHT22;35277;49.890;8.222;2024-03-08T12:13:03;21.90;54.80
2995;DHT22;35277;49.890;8.222;2024-03-08T12:15:39;21.90;54.80
2995;DHT22;35277;49.890;8.222;2024-03-08T12:18:07;21.90;54.80
2995;DHT22;35277;49.890;8.222;2024-03-08T12:20:37;21.90;54.80
2995;DHT22;35277;49.890;8.222;2024-03-08T12:23:05;21.90;54.80
2995;DHT22;35277;49.890;8.222;2024-03-08T12:25:35;21.90;54.80
2995;DHT22;35277;49.890;8.222;2024-03-08T12:28:09;21.90;54.70
2995;DHT22;35277;49.890;8.222;2024-03-08T12:30:46;21.90;54.70
2995;DHT22;35277;49.890;8.222;2024-03-08T12:33:15;21.90;54.70
2995;DHT22;35277;49.890;8.222;2024-03-08T12:35:51;22.00;54.80
2995;DHT22;35277;49.890;8.222;2024-03-08T12:38:22;22.00;54.80
2995;DHT22;35277;49.890;8.222;2024-03-08T12:40:58;22.00;54.80
2995;DHT22;35277;49.890;8.222;2024-03-08T12:43:26;22.00;54.80
2995;DHT22;35277;49.890;8.222;2024-03-08T12:45:56;22.00;54.80
2995;DHT22;35277;49.890;8.222;2024-03-08T12:48:24;22.00;54.70
2995;DHT22;35277;49.890;8.222;2024-03-08T12:50:52;22.10;54.90
2995;DHT22;35277;49.890;8.222;2024-03-08T12:53:21;22.10;54.80
2995;DHT22;35277;49.890;8.222;2024-03-08T12:55:49;22.00;54.70
2995;DHT22;35277;49.890;8.222;2024-03-08T12:58:19;22.10;54.80
2995;DHT22;35277;49.890;8.222;2024-03-08T13:00:48;22.10;54.80
2995;DHT22;35277;49.890;8.222;2024-03-08T13:03:19;22.10;54.70
2995;DHT22;35277;49.890;8.222;2024-03-08T13:05:47;22.10;54.60
2995;DHT22;35277;49.890;8.222;2024-03-08T13:08:16;22.10;54.40
2995;DHT22;35277;49.890;8.222;2024-03-08T13:10:44;22.10;54.20
2995;DHT22;35277;49.890;8.222;2024-03-08T13:13:13;22.10;53.90
2995;DHT22;35277;49.890;8.222;2024-03-08T13:15:45;22.10;53.40
2995;DHT22;35277;49.890;8.222;2024-03-08T13:18:13;22.00;53.10
2995;DHT22;35277;49.890;8.222;2024-03-08T13:20:42;22.00;53.00
2995;DHT22;35277;49.890;8.222;2024-03-08T13:23:15;21.90;53.00
2995;DHT22;35277;49.890;8.222;2024-03-08T13:25:44;21.90;53.00
2995;DHT22;35277;49.890;8.222;2024-03-08T13:28:14;21.90;52.80
2995;DHT22;35277;49.890;8.222;2024-03-08T13:30:42;21.90;52.90
2995;DHT22;35277;49.890;8.222;2024-03-08T13:33:12;21.90;52.90
2995;DHT22;35277;49.890;8.222;2024-03-08T13:35:41;21.90;52.80
2995;DHT22;35277;49.890;8.222;2024-03-08T13:38:09;21.90;52.70
2995;DHT22;35277;49.890;8.222;2024-03-08T13:40:39;21.90;52.80
2995;DHT22;35277;49.890;8.222;2024-03-08T13:43:07;21.90;52.70
2995;DHT22;35277;49.890;8.222;2024-03-08T13:45:36;21.90;52.70
2995;DHT22;35277;49.890;8.222;2024-03-08T13:48:07;21.90;52.60
2995;DHT22;35277;49.890;8.222;2024-03-08T13:50:40;21.90;52.50
2995;DHT22;35277;49.890;8.222;2024-03-08T13:53:08;21.90;52.30
2995;DHT22;35277;49.890;8.222;2024-03-08T13:55:37;21.80;52.00
2995;DHT22;35277;49.890;8.222;2024-03-08T13:58:04;21.90;52.10
2995;DHT22;35277;49.890;8.222;2024-03-08T14:00:36;21.90;52.00
2995;DHT22;35277;49.890;8.222;2024-03-08T14:03:04;21.90;51.90
2995;DHT22;35277;49.890;8.222;2024-03-08T14:05:33;21.90;51.90
2995;DHT22;35277;49.890;8.222;2024-03-08T14:08:03;21.90;51.80
2995;DHT22;35277;49.890;8.222;2024-03-08T14:10:33;21.90;51.80
2995;DHT22;35277;49.890;8.222;2024-03-08T14:13:04;21.90;51.70
2995;DHT22;35277;49.890;8.222;2024-03-08T14:15:33;22.00;51.80
2995;DHT22;35277;49.890;8.222;2024-03-08T14:18:02;22.00;51.70
2995;DHT22;35277;49.890;8.222;2024-03-08T14:20:33;22.00;51.60
2995;DHT22;35277;49.890;8.222;2024-03-08T14:23:02;22.10;51.70
2995;DHT22;35277;49.890;8.222;2024-03-08T14:25:33;22.10;51.60
2995;DHT22;35277;49.890;8.222;2024-03-08T14:28:01;22.10;51.50
2995;DHT22;35277;49.890;8.222;2024-03-08T14:30:33;22.10;51.50
2995;DHT22;35277;49.890;8.222;2024-03-08T14:33:05;22.10;51.40
2995;DHT22;35277;49.890;8.222;2024-03-08T14:35:35;22.10;51.30
2995;DHT22;35277;49.890;8.222;2024-03-08T14:38:04;22.10;51.20
2995;DHT22;35277;49.890;8.222;2024-03-08T14:40:34;22.10;51.20
2995;DHT22;35277;49.890;8.222;2024-03-08T14:43:03;22.20;51.20
2995;DHT22;35277;49.890;8.222;2024-03-08T14:45:32;22.20;51.10
2995;DHT22;35277;49.890;8.222;2024-03-08T14:48:01;22.20;51.10
2995;DHT22;35277;49.890;8.222;2024-03-08T14:50:29;22.20;51.20
2995;DHT22;35277;49.890;8.222;2024-03-08T14:52:58;22.20;51.30
2995;DHT22;35277;49.890;8.222;2024-03-08T14:55:28;22.20;51.40
2995;DHT22;35277;49.890;8.222;2024-03-08T14:57:57;22.30;51.50
2995;DHT22;35277;49.890;8.222;2024-03-08T15:00:25;22.30;52.30
2995;DHT22;35277;49.890;8.222;2024-03-08T15:03:00;22.30;51.80
2995;DHT22;35277;49.890;8.222;2024-03-08T15:05:29;22.30;51.90
2995;DHT22;35277;49.890;8.222;2024-03-08T15:07:59;22.30;52.10
2995;DHT22;35277;49.890;8.222;2024-03-08T15:10:29;22.30;52.10
2995;DHT22;35277;49.890;8.222;2024-03-08T15:13:00;22.40;52.40
2995;DHT22;35277;49.890;8.222;2024-03-08T15:15:34;22.40;52.50
2995;DHT22;35277;49.890;8.222;2024-03-08T15:18:02;22.40;52.60
2995;DHT22;35277;49.890;8.222;2024-03-08T15:20:30;22.40;53.30
2995;DHT22;35277;49.890;8.222;2024-03-08T15:23:01;22.50;52.80
2995;DHT22;35277;49.890;8.222;2024-03-08T15:25:32;22.50;53.00
2995;DHT22;35277;49.890;8.222;2024-03-08T15:28:01;22.50;53.10
2995;DHT22;35277;49.890;8.222;2024-03-08T15:30:31;22.50;53.10
2995;DHT22;35277;49.890;8.222;2024-03-08T15:33:00;22.50;53.20
2995;DHT22;35277;49.890;8.222;2024-03-08T15:35:30;22.60;53.40
2995;DHT22;35277;49.890;8.222;2024-03-08T15:37:58;22.60;53.50
2995;DHT22;35277;49.890;8.222;2024-03-08T15:40:27;22.60;53.50
2995;DHT22;35277;49.890;8.222;2024-03-08T15:42:59;22.60;53.60
2995;DHT22;35277;49.890;8.222;2024-03-08T15:45:26;22.60;53.70
2995;DHT22;35277;49.890;8.222;2024-03-08T15:47:54;22.60;53.80
2995;DHT22;35277;49.890;8.222;2024-03-08T15:50:22;22.60;53.90
2995;DHT22;35277;49.890;8.222;2024-03-08T15:52:50;22.60;54.00
2995;DHT22;35277;49.890;8.222;2024-03-08T15:55:20;22.70;54.20
2995;DHT22;35277;49.890;8.222;2024-03-08T15:57:51;22.70;54.20
2995;DHT22;35277;49.890;8.222;2024-03-08T16:00:20;22.70;54.30